createdAt,value
2023-01-04T00:00:35.073Z,1.96
2023-01-04T00:05:41.098Z,2.32
2023-01-04T00:10:47.294Z,2.18
2023-01-04T00:15:53.559Z,2.00
2023-01-04T00:20:59.891Z,2.07
2023-01-04T00:26:06.004Z,1.78
2023-01-04T00:31:12.360Z,2.01
2023-01-04T00:36:18.839Z,2.05
2023-01-04T00:41:56.813Z,1.83
2023-01-04T00:46:30.668Z,1.86
2023-01-04T00:51:37.264Z,1.61
2023-01-04T00:56:43.421Z,2.07
2023-01-04T01:01:49.799Z,2.15
2023-01-04T01:06:55.729Z,1.93
2023-01-04T01:12:01.979Z,1.75
2023-01-04T01:17:08.228Z,1.91
2023-01-04T01:22:14.376Z,1.80
2023-01-04T01:27:20.509Z,1.90
2023-01-04T01:32:26.652Z,1.58
2023-01-04T01:37:32.769Z,1.76
2023-01-04T01:42:38.954Z,1.86
2023-01-04T01:47:46.130Z,1.98
2023-01-04T01:52:52.489Z,1.57
2023-01-04T01:57:58.643Z,1.52
2023-01-04T02:03:04.992Z,2.31
2023-01-04T02:08:10.950Z,1.74
2023-01-04T02:13:17.192Z,1.78
2023-01-04T02:18:23.645Z,1.65
2023-01-04T02:23:29.813Z,1.91
2023-01-04T02:28:35.923Z,1.74
2023-01-04T02:33:42.245Z,1.95
2023-01-04T02:38:48.377Z,1.77
2023-01-04T02:43:54.534Z,1.80
2023-01-04T02:49:00.617Z,1.98
2023-01-04T02:54:06.845Z,2.02
2023-01-04T02:59:13.062Z,2.14
2023-01-04T03:04:19.316Z,1.94
2023-01-04T03:09:25.378Z,1.98
2023-01-04T03:14:33.561Z,2.09
2023-01-04T03:19:37.218Z,2.32
2023-01-04T03:24:43.715Z,2.20
2023-01-04T03:29:49.800Z,2.24
2023-01-04T03:34:56.064Z,2.56
2023-01-04T03:40:02.149Z,2.58
2023-01-04T03:45:10.482Z,2.52
2023-01-04T03:50:14.164Z,2.62
2023-01-04T03:55:20.534Z,2.55
2023-01-04T04:00:26.644Z,2.66
2023-01-04T04:05:32.911Z,2.50
2023-01-04T04:10:39.016Z,2.49
2023-01-04T04:15:45.262Z,2.53
2023-01-04T04:20:51.395Z,2.83
2023-01-04T04:25:57.866Z,2.66
2023-01-04T04:31:04.082Z,2.58
2023-01-04T04:36:10.484Z,2.60
2023-01-04T04:41:16.648Z,2.78
2023-01-04T04:46:24.348Z,2.94
2023-01-04T04:51:30.355Z,2.78
2023-01-04T04:56:36.572Z,2.77
2023-01-04T05:01:42.978Z,2.84
2023-01-04T05:06:48.948Z,2.78
2023-01-04T05:11:55.035Z,2.78
2023-01-04T05:17:01.306Z,2.77
2023-01-04T05:22:07.400Z,2.80
2023-01-04T05:27:13.669Z,3.01
2023-01-04T05:32:19.736Z,2.91
2023-01-04T05:37:26.049Z,3.10
2023-01-04T05:42:32.157Z,2.85
2023-01-04T05:47:38.353Z,2.80
2023-01-04T05:52:44.410Z,2.51
2023-01-04T05:57:50.604Z,2.56
2023-01-04T06:02:56.800Z,2.44
2023-01-04T06:08:02.969Z,2.26
2023-01-04T06:13:09.043Z,2.14
2023-01-04T06:18:15.245Z,2.18
2023-01-04T06:23:21.309Z,2.04
2023-01-04T06:28:27.476Z,1.86
2023-01-04T06:33:33.554Z,1.83
2023-01-04T06:38:39.853Z,2.02
2023-01-04T06:43:46.028Z,1.84
2023-01-04T06:48:52.197Z,1.87
2023-01-04T06:53:58.274Z,1.78
2023-01-04T06:59:04.579Z,1.71
2023-01-04T07:04:10.857Z,1.77
2023-01-04T07:09:16.991Z,1.65
2023-01-04T07:14:23.102Z,1.56
2023-01-04T07:19:29.303Z,1.55
2023-01-04T07:24:35.370Z,1.73
2023-01-04T07:29:42.723Z,1.61
2023-01-04T07:34:48.867Z,1.64
2023-01-04T07:39:55.057Z,1.69
2023-01-04T07:45:01.255Z,1.36
2023-01-04T07:50:07.436Z,1.38
2023-01-04T07:55:13.492Z,1.42
2023-01-04T08:00:20.402Z,1.57
2023-01-04T08:05:26.540Z,1.87
2023-01-04T08:10:32.751Z,2.02
2023-01-04T08:15:38.893Z,2.17
2023-01-04T08:20:45.073Z,2.06
2023-01-04T08:25:51.177Z,1.97
2023-01-04T08:30:57.534Z,2.00
2023-01-04T08:36:03.624Z,1.99
2023-01-04T08:41:46.735Z,1.87
2023-01-04T08:46:15.530Z,1.59
2023-01-04T08:51:21.685Z,1.52
2023-01-04T08:56:27.832Z,1.42
2023-01-04T09:01:34.085Z,1.40
2023-01-04T09:06:40.094Z,1.25
2023-01-04T09:11:46.718Z,1.31
2023-01-04T09:16:52.795Z,1.32
2023-01-04T09:21:59.146Z,1.27
2023-01-04T09:27:05.252Z,1.11
2023-01-04T09:32:16.110Z,1.08
2023-01-04T09:37:17.100Z,1.10
2023-01-04T09:42:23.279Z,1.08
2023-01-04T09:47:29.380Z,1.15
2023-01-04T09:52:35.606Z,1.15
2023-01-04T09:57:41.656Z,1.19
2023-01-04T10:02:48.200Z,1.27
2023-01-04T10:07:54.107Z,1.27
2023-01-04T10:13:00.443Z,1.31
2023-01-04T10:23:12.550Z,1.26
2023-01-04T10:28:18.638Z,1.33
2023-01-04T10:33:24.940Z,1.27
2023-01-04T10:38:31.011Z,1.31
2023-01-04T10:44:10.951Z,1.27
2023-01-04T10:48:43.030Z,1.18
2023-01-04T10:53:49.260Z,1.22
2023-01-04T10:58:55.375Z,1.26
2023-01-04T11:04:01.575Z,1.08
2023-01-04T11:09:07.654Z,1.16
2023-01-04T11:14:13.819Z,1.03
2023-01-04T11:19:20.919Z,0.97
2023-01-04T11:24:33.022Z,0.94
2023-01-04T11:29:32.977Z,1.01
2023-01-04T11:34:39.289Z,0.88
2023-01-04T11:39:45.449Z,0.94
2023-01-04T11:44:51.600Z,1.13
2023-01-04T11:49:57.704Z,1.18
2023-01-04T11:55:04.682Z,1.20
2023-01-04T12:00:10.828Z,1.38
2023-01-04T12:05:21.145Z,1.36
2023-01-04T12:10:22.769Z,1.77
2023-01-04T12:15:29.724Z,1.65
2023-01-04T12:20:35.845Z,1.57
2023-01-04T12:25:42.135Z,1.55
2023-01-04T12:30:48.278Z,1.57
2023-01-04T12:35:54.831Z,1.96
2023-01-04T12:41:01.281Z,1.60
2023-01-04T12:46:07.513Z,1.50
2023-01-04T12:51:31.242Z,1.21
2023-01-04T12:56:19.258Z,1.05
2023-01-04T13:01:25.513Z,1.15
2023-01-04T13:06:31.588Z,1.31
2023-01-04T13:11:37.748Z,1.51
2023-01-04T13:16:44.064Z,1.59
2023-01-04T13:21:50.082Z,1.42
2023-01-04T13:26:56.816Z,1.85
2023-01-04T13:32:03.012Z,1.68
2023-01-04T13:37:10.144Z,1.58
2023-01-04T13:42:16.281Z,1.84
2023-01-04T13:47:22.514Z,1.90
2023-01-04T13:52:48.373Z,1.80
2023-01-04T13:57:35.195Z,1.72
2023-01-04T14:02:41.404Z,1.82
2023-01-04T14:07:47.457Z,1.77
2023-01-04T14:12:53.561Z,1.69
2023-01-04T14:17:59.861Z,1.99
2023-01-04T14:23:06.055Z,1.76
2023-01-04T14:28:12.340Z,1.83
2023-01-04T14:33:18.487Z,1.80
2023-01-04T14:38:25.319Z,1.60
2023-01-04T14:43:31.494Z,1.56
2023-01-04T14:48:37.746Z,1.69
2023-01-04T14:53:44.619Z,1.69
2023-01-04T14:58:50.055Z,1.72
2023-01-04T15:03:56.257Z,1.92
2023-01-04T15:09:02.457Z,2.02
2023-01-04T15:14:08.561Z,2.32
2023-01-04T15:19:14.788Z,2.37
2023-01-04T15:24:20.946Z,2.62
2023-01-04T15:30:07.790Z,2.65
2023-01-04T15:35:13.902Z,2.62
2023-01-04T15:40:20.116Z,2.37
2023-01-04T15:45:26.278Z,2.41
2023-01-04T15:50:32.453Z,2.82
2023-01-04T15:55:38.630Z,2.65
2023-01-04T16:00:49.197Z,2.86
2023-01-04T16:05:51.283Z,3.05
2023-01-04T16:10:57.503Z,2.80
2023-01-04T16:16:03.696Z,2.86
2023-01-04T16:21:09.807Z,2.99
2023-01-04T16:26:15.906Z,2.94
2023-01-04T16:31:22.078Z,2.93
2023-01-04T16:36:28.170Z,3.15
2023-01-04T16:41:35.005Z,3.01
2023-01-04T16:46:41.162Z,2.92
2023-01-04T16:51:47.373Z,2.94
2023-01-04T16:56:53.537Z,3.23
2023-01-04T17:02:01.326Z,3.36
2023-01-04T17:07:07.314Z,2.70
2023-01-04T17:17:19.490Z,2.89
2023-01-04T17:22:32.359Z,2.74
2023-01-04T17:27:31.844Z,2.86
2023-01-04T17:32:38.846Z,2.77
2023-01-04T17:37:44.932Z,2.99
2023-01-04T17:42:51.210Z,2.93
2023-01-04T17:47:57.308Z,2.97
2023-01-04T17:53:03.520Z,3.29
2023-01-04T17:58:12.072Z,2.90
2023-01-04T18:03:15.387Z,3.46
2023-01-04T18:08:21.797Z,2.94
2023-01-04T18:13:28.007Z,3.10
2023-01-04T18:18:34.073Z,2.70
2023-01-04T18:23:44.044Z,2.57
2023-01-04T18:28:46.515Z,3.01
2023-01-04T18:33:52.749Z,2.67
2023-01-04T18:38:59.194Z,2.50
2023-01-04T18:44:31.027Z,2.80
2023-01-04T18:49:11.057Z,2.83
2023-01-04T18:54:17.265Z,2.57
2023-01-04T18:59:23.400Z,2.51
2023-01-04T19:04:29.609Z,3.22
2023-01-04T19:09:35.897Z,2.89
2023-01-04T19:14:42.096Z,2.46
2023-01-04T19:19:51.176Z,2.04
2023-01-04T19:24:57.385Z,2.03
2023-01-04T19:30:03.559Z,2.45
2023-01-04T19:35:15.982Z,2.40
2023-01-04T19:40:20.637Z,2.78
2023-01-04T19:45:16.873Z,3.10
2023-01-04T19:50:22.980Z,2.86
2023-01-04T19:55:29.242Z,2.78
2023-01-04T20:00:35.301Z,2.71
2023-01-04T20:05:41.547Z,2.83
2023-01-04T20:10:47.755Z,3.30
2023-01-04T20:15:54.554Z,2.59
2023-01-04T20:21:00.630Z,2.97
2023-01-04T20:26:11.148Z,2.25
2023-01-04T20:31:12.614Z,2.42
2023-01-04T20:36:20.280Z,2.75
2023-01-04T20:41:26.335Z,2.43
2023-01-04T20:46:32.829Z,2.63
2023-01-04T20:51:38.833Z,2.94
2023-01-04T20:56:45.029Z,2.58
2023-01-04T21:01:51.183Z,2.65
2023-01-04T21:06:57.408Z,2.98
2023-01-04T21:12:07.302Z,2.91
2023-01-04T21:17:09.311Z,2.74
2023-01-04T21:22:15.376Z,2.89
2023-01-04T21:27:21.592Z,2.52
2023-01-04T21:32:27.697Z,1.86
2023-01-04T21:37:33.856Z,1.81
2023-01-04T21:42:40.051Z,1.55
2023-01-04T21:47:46.201Z,1.61
2023-01-04T21:52:52.345Z,2.49
2023-01-04T21:57:58.567Z,2.81
2023-01-04T22:03:04.853Z,2.64
2023-01-04T22:08:11.021Z,2.97
2023-01-04T22:13:17.215Z,2.89
2023-01-04T22:18:23.377Z,3.02
2023-01-04T22:23:29.549Z,2.99
2023-01-04T22:28:37.250Z,3.20
2023-01-04T22:33:41.635Z,2.52
2023-01-04T22:38:47.849Z,3.00
2023-01-04T22:43:54.131Z,2.87
2023-01-04T22:49:00.289Z,2.73
2023-01-04T22:54:06.429Z,2.64
2023-01-04T22:59:12.588Z,2.94
2023-01-04T23:04:18.746Z,2.58
2023-01-04T23:09:24.927Z,2.59
2023-01-04T23:14:31.043Z,2.93
2023-01-04T23:19:37.240Z,2.45
2023-01-04T23:24:43.418Z,2.66
2023-01-04T23:29:49.626Z,2.41
2023-01-04T23:34:55.681Z,2.78
2023-01-04T23:40:01.917Z,2.86
2023-01-04T23:45:08.838Z,3.16
2023-01-04T23:50:15.196Z,2.85
2023-01-04T23:55:21.273Z,3.40
